createdAt,value
2023-03-26T00:00:50.451Z,7.40
2023-03-26T00:02:23.614Z,7.39
2023-03-26T00:03:58.072Z,7.37
2023-03-26T00:05:32.291Z,7.36
2023-03-26T00:07:04.124Z,7.33
2023-03-26T00:08:37.936Z,7.31
2023-03-26T00:10:10.196Z,7.30
2023-03-26T00:11:43.132Z,7.30
2023-03-26T00:13:14.902Z,7.30
2023-03-26T00:14:46.709Z,7.29
2023-03-26T00:16:19.934Z,7.29
2023-03-26T00:17:54.360Z,7.30
2023-03-26T00:19:26.157Z,7.30
2023-03-26T00:21:05.671Z,7.31
2023-03-26T00:22:37.438Z,7.36
2023-03-26T00:24:15.498Z,7.38
2023-03-26T00:25:51.040Z,7.40
2023-03-26T00:27:23.356Z,7.43
2023-03-26T00:28:55.131Z,7.45
2023-03-26T00:30:27.852Z,7.46
2023-03-26T00:31:59.782Z,7.50
2023-03-26T00:33:32.343Z,7.52
2023-03-26T00:35:05.010Z,7.53
2023-03-26T00:36:37.429Z,7.55
2023-03-26T00:38:09.255Z,7.56
2023-03-26T00:39:42.927Z,7.56
2023-03-26T00:41:18.087Z,7.58
2023-03-26T00:42:50.395Z,7.57
2023-03-26T00:44:22.235Z,7.58
2023-03-26T00:45:55.829Z,7.58
2023-03-26T00:47:29.286Z,7.60
2023-03-26T00:49:02.076Z,7.61
2023-03-26T00:50:33.867Z,7.63
2023-03-26T00:52:08.842Z,7.65
2023-03-26T00:53:41.448Z,7.69
2023-03-26T00:55:13.479Z,7.69
2023-03-26T00:56:45.638Z,7.71
2023-03-26T00:58:17.473Z,7.73
2023-03-26T00:59:50.552Z,7.75
2023-03-26T01:01:29.204Z,7.76
2023-03-26T01:03:03.209Z,7.78
2023-03-26T01:04:35.406Z,7.79
2023-03-26T01:06:11.511Z,7.80
2023-03-26T01:07:44.863Z,7.83
2023-03-26T01:09:21.757Z,7.83
2023-03-26T01:11:03.040Z,7.85
2023-03-26T01:12:34.928Z,7.84
2023-03-26T01:14:27.022Z,7.87
2023-03-26T01:16:02.168Z,7.89
2023-03-26T01:17:38.056Z,7.90
2023-03-26T01:19:18.278Z,7.85
2023-03-26T01:20:51.394Z,7.84
2023-03-26T01:22:27.464Z,7.78
2023-03-26T01:24:05.364Z,7.73
2023-03-26T01:25:44.733Z,7.68
2023-03-26T01:27:39.173Z,7.57
2023-03-26T01:29:20.990Z,7.53
2023-03-26T01:31:06.464Z,7.46
2023-03-26T01:32:51.616Z,7.39
2023-03-26T01:34:49.975Z,7.32
2023-03-26T01:36:32.655Z,7.28
2023-03-26T01:38:23.416Z,7.19
2023-03-26T01:40:06.149Z,7.18
2023-03-26T01:41:56.084Z,7.09
2023-03-26T01:43:35.487Z,7.07
2023-03-26T01:45:16.831Z,7.01
2023-03-26T01:46:50.267Z,6.99
2023-03-26T01:48:30.601Z,6.94
2023-03-26T01:50:02.436Z,6.91
2023-03-26T01:51:36.016Z,6.88
2023-03-26T01:53:10.503Z,6.83
2023-03-26T01:54:43.239Z,6.81
2023-03-26T01:56:36.883Z,6.74
2023-03-26T01:58:24.342Z,6.70
2023-03-26T01:59:58.978Z,6.70
2023-03-26T02:01:44.982Z,6.68
2023-03-26T02:03:32.111Z,6.65
2023-03-26T02:05:12.997Z,6.64
2023-03-26T02:06:51.720Z,6.64
2023-03-26T02:08:25.504Z,6.61
2023-03-26T02:10:05.752Z,6.58
2023-03-26T02:11:39.879Z,6.56
2023-03-26T02:13:13.438Z,6.53
2023-03-26T02:14:45.916Z,6.51
2023-03-26T02:16:20.177Z,6.49
2023-03-26T02:17:54.330Z,6.49
2023-03-26T02:19:26.230Z,6.49
2023-03-26T02:20:58.023Z,6.47
2023-03-26T02:22:30.108Z,6.47
2023-03-26T02:24:04.065Z,6.45
2023-03-26T02:25:42.140Z,6.46
2023-03-26T02:27:14.660Z,6.46
2023-03-26T02:28:47.919Z,6.49
2023-03-26T02:30:25.967Z,6.48
2023-03-26T02:32:02.420Z,6.49
2023-03-26T02:33:34.346Z,6.50
2023-03-26T02:35:07.103Z,6.52
2023-03-26T02:36:43.060Z,6.51
2023-03-26T02:38:15.206Z,6.51
2023-03-26T02:39:47.619Z,6.52
2023-03-26T02:41:29.222Z,6.51
2023-03-26T02:43:05.551Z,6.52
2023-03-26T02:44:40.405Z,6.52
2023-03-26T02:46:24.133Z,6.51
2023-03-26T02:48:09.525Z,6.52
2023-03-26T02:49:53.038Z,6.55
2023-03-26T02:51:45.142Z,6.57
2023-03-26T02:53:29.902Z,6.61
2023-03-26T02:55:19.318Z,6.63
2023-03-26T02:56:52.036Z,6.65
2023-03-26T02:58:42.612Z,6.67
2023-03-26T03:00:14.766Z,6.68
2023-03-26T03:01:52.209Z,6.71
2023-03-26T03:03:27.218Z,6.72
2023-03-26T03:05:02.235Z,6.73
2023-03-26T03:06:39.064Z,6.74
2023-03-26T03:08:10.896Z,6.76
2023-03-26T03:09:50.834Z,6.77
2023-03-26T03:11:52.810Z,6.77
2023-03-26T03:13:24.803Z,6.78
2023-03-26T03:14:56.722Z,6.77
2023-03-26T03:16:28.962Z,6.76
2023-03-26T03:18:03.117Z,6.78
2023-03-26T03:19:37.987Z,6.77
2023-03-26T03:21:10.068Z,6.77
2023-03-26T03:22:42.008Z,6.75
2023-03-26T03:24:14.179Z,6.76
2023-03-26T03:25:51.067Z,6.76
2023-03-26T03:27:24.010Z,6.76
2023-03-26T03:29:02.684Z,6.76
2023-03-26T03:30:35.910Z,6.77
2023-03-26T03:32:22.841Z,6.78
2023-03-26T03:33:56.819Z,6.78
2023-03-26T03:35:30.519Z,6.77
2023-03-26T03:37:05.524Z,6.77
2023-03-26T03:38:45.615Z,6.76
2023-03-26T03:40:21.726Z,6.76
2023-03-26T03:41:53.780Z,6.74
2023-03-26T03:43:25.663Z,6.70
2023-03-26T03:45:14.342Z,6.68
2023-03-26T03:46:49.495Z,6.65
2023-03-26T03:48:21.520Z,6.62
2023-03-26T03:49:53.940Z,6.61
2023-03-26T03:51:26.055Z,6.60
2023-03-26T03:53:01.410Z,6.58
2023-03-26T03:54:33.903Z,6.54
2023-03-26T03:56:39.771Z,6.51
2023-03-26T03:58:31.228Z,6.50
2023-03-26T04:00:14.962Z,6.45
2023-03-26T04:01:55.135Z,6.42
2023-03-26T04:03:39.234Z,6.38
2023-03-26T04:05:16.375Z,6.35
2023-03-26T04:06:52.878Z,6.32
2023-03-26T04:08:25.681Z,6.28
2023-03-26T04:10:00.559Z,6.26
2023-03-26T04:11:37.030Z,6.27
2023-03-26T04:13:31.966Z,6.23
2023-03-26T04:15:22.850Z,6.18
2023-03-26T04:16:55.179Z,6.19
2023-03-26T04:18:29.768Z,6.17
2023-03-26T04:20:07.051Z,6.19
2023-03-26T04:21:39.779Z,6.19
2023-03-26T04:23:14.373Z,6.19
2023-03-26T04:24:49.939Z,6.18
2023-03-26T04:26:34.031Z,6.20
2023-03-26T04:28:12.045Z,6.21
2023-03-26T04:30:06.917Z,6.24
2023-03-26T04:31:39.279Z,6.26
2023-03-26T04:33:15.680Z,6.28
2023-03-26T04:34:48.869Z,6.31
2023-03-26T04:36:27.709Z,6.33
2023-03-26T04:38:01.332Z,6.37
2023-03-26T04:39:40.270Z,6.41
2023-03-26T04:41:32.639Z,6.43
2023-03-26T04:43:16.530Z,6.47
2023-03-26T04:45:06.735Z,6.48
2023-03-26T04:46:38.745Z,6.51
2023-03-26T04:48:22.158Z,6.54
2023-03-26T04:49:53.982Z,6.55
2023-03-26T04:51:30.403Z,6.55
2023-03-26T04:53:03.182Z,6.56
2023-03-26T04:54:53.438Z,6.57
2023-03-26T04:56:43.535Z,6.55
2023-03-26T04:58:18.895Z,6.58
2023-03-26T05:00:08.889Z,6.59
2023-03-26T05:01:42.139Z,6.60
2023-03-26T05:03:16.709Z,6.60
2023-03-26T05:04:50.170Z,6.63
2023-03-26T05:06:23.102Z,6.63
2023-03-26T05:07:55.441Z,6.64
2023-03-26T05:09:28.227Z,6.67
2023-03-26T05:11:20.829Z,6.72
2023-03-26T05:12:52.685Z,6.73
2023-03-26T05:14:31.078Z,6.77
2023-03-26T05:16:04.041Z,6.79
2023-03-26T05:17:45.228Z,6.81
2023-03-26T05:19:25.937Z,6.83
2023-03-26T05:20:58.364Z,6.84
2023-03-26T05:22:31.564Z,6.86
2023-03-26T05:24:14.853Z,6.88
2023-03-26T05:25:47.360Z,6.88
2023-03-26T05:27:25.069Z,6.90
2023-03-26T05:28:57.271Z,6.90
2023-03-26T05:30:34.639Z,6.90
2023-03-26T05:32:08.004Z,6.91
2023-03-26T05:33:40.353Z,6.92
2023-03-26T05:35:17.824Z,6.91
2023-03-26T05:36:50.760Z,6.93
2023-03-26T05:38:47.440Z,6.93
2023-03-26T05:40:23.665Z,6.92
2023-03-26T05:42:01.910Z,6.92
2023-03-26T05:43:49.141Z,6.93
2023-03-26T05:45:25.516Z,6.94
2023-03-26T05:46:57.332Z,6.94
2023-03-26T05:48:31.828Z,6.96
2023-03-26T05:50:05.154Z,6.96
2023-03-26T05:51:41.373Z,6.99
2023-03-26T05:53:36.094Z,7.01
2023-03-26T05:55:26.252Z,7.02
2023-03-26T05:57:24.166Z,7.05
2023-03-26T05:59:15.549Z,7.09
2023-03-26T06:01:17.282Z,7.12
2023-03-26T06:03:12.949Z,7.19
2023-03-26T06:05:14.169Z,7.25
2023-03-26T06:06:52.887Z,7.31
2023-03-26T06:08:25.950Z,7.38
2023-03-26T06:09:58.423Z,7.45
2023-03-26T06:11:32.183Z,7.52
2023-03-26T06:13:05.392Z,7.62
2023-03-26T06:14:40.061Z,7.68
2023-03-26T06:16:32.200Z,7.76
2023-03-26T06:18:26.626Z,7.83
2023-03-26T06:20:23.228Z,7.88
2023-03-26T06:21:56.949Z,7.93
2023-03-26T06:23:36.510Z,7.95
2023-03-26T06:25:34.438Z,7.99
2023-03-26T06:27:13.021Z,7.99
2023-03-26T06:29:05.528Z,8.00
2023-03-26T06:30:51.676Z,8.00
2023-03-26T06:32:41.890Z,8.01
2023-03-26T06:34:22.332Z,8.01
2023-03-26T06:35:54.538Z,8.01
2023-03-26T06:37:26.577Z,8.00
2023-03-26T06:39:07.581Z,8.01
2023-03-26T06:40:41.588Z,8.01
2023-03-26T06:43:06.737Z,8.02
2023-03-26T06:44:38.928Z,8.03
2023-03-26T06:46:36.475Z,8.07
2023-03-26T06:48:37.532Z,8.10
2023-03-26T06:50:29.869Z,8.17
2023-03-26T06:52:32.216Z,8.24
2023-03-26T06:54:23.481Z,8.28
2023-03-26T06:55:55.511Z,8.36
2023-03-26T06:57:39.141Z,8.47
2023-03-26T06:59:43.108Z,8.52
2023-03-26T07:01:33.532Z,8.56
2023-03-26T07:03:24.051Z,8.62
2023-03-26T07:05:14.889Z,8.66
2023-03-26T07:07:05.635Z,8.70
2023-03-26T07:08:57.552Z,8.73
2023-03-26T07:10:48.130Z,8.77
2023-03-26T07:12:41.738Z,8.83
2023-03-26T07:14:51.968Z,8.90
2023-03-26T07:16:43.589Z,9.00
2023-03-26T07:18:18.483Z,9.07
2023-03-26T07:19:52.840Z,9.12
2023-03-26T07:21:28.485Z,9.17
2023-03-26T07:23:00.624Z,9.25
2023-03-26T07:24:55.942Z,9.33
2023-03-26T07:27:11.395Z,9.37
2023-03-26T07:29:04.644Z,9.44
2023-03-26T07:31:01.922Z,9.50
2023-03-26T07:33:23.920Z,9.54
2023-03-26T07:35:29.065Z,9.62
2023-03-26T07:37:38.202Z,9.68
2023-03-26T07:39:46.630Z,9.75
2023-03-26T07:41:46.208Z,9.79
2023-03-26T07:44:02.779Z,9.89
2023-03-26T07:45:58.051Z,9.98
2023-03-26T07:47:49.747Z,10.01
2023-03-26T07:49:31.677Z,10.10
2023-03-26T07:51:19.058Z,10.15
2023-03-26T07:52:56.913Z,10.22
2023-03-26T07:54:36.633Z,10.24
2023-03-26T07:56:38.849Z,10.28
2023-03-26T07:58:48.149Z,10.31
2023-03-26T08:00:50.215Z,10.40
2023-03-26T08:02:52.770Z,10.41
2023-03-26T08:05:10.705Z,10.42
2023-03-26T08:07:34.046Z,10.45
2023-03-26T08:09:31.014Z,10.46
2023-03-26T08:11:07.371Z,10.46
2023-03-26T08:12:50.023Z,10.46
2023-03-26T08:14:42.678Z,10.40
2023-03-26T08:16:23.310Z,10.41
2023-03-26T08:18:12.008Z,10.41
2023-03-26T08:19:52.638Z,10.37
2023-03-26T08:21:31.971Z,10.39
2023-03-26T08:23:13.640Z,10.36
2023-03-26T08:25:16.833Z,10.32
2023-03-26T08:27:13.648Z,10.30
2023-03-26T08:29:11.079Z,10.29
2023-03-26T08:30:43.219Z,10.32
2023-03-26T08:32:17.928Z,10.31
2023-03-26T08:33:50.301Z,10.30
2023-03-26T08:35:22.674Z,10.30
2023-03-26T08:36:54.521Z,10.31
2023-03-26T08:38:26.594Z,10.32
2023-03-26T08:39:58.399Z,10.30
2023-03-26T08:41:48.609Z,10.31
2023-03-26T08:43:39.177Z,10.32
2023-03-26T08:45:20.165Z,10.36
2023-03-26T08:47:23.626Z,10.33
2023-03-26T08:49:36.603Z,10.34
2023-03-26T08:51:42.631Z,10.35
2023-03-26T08:53:48.261Z,10.32
2023-03-26T08:55:41.797Z,10.30
2023-03-26T08:57:41.663Z,10.32
2023-03-26T08:59:19.198Z,10.34
2023-03-26T09:01:18.823Z,10.32
2023-03-26T09:03:17.348Z,10.33
2023-03-26T09:05:08.203Z,10.35
2023-03-26T09:07:06.981Z,10.39
2023-03-26T09:09:00.805Z,10.42
2023-03-26T09:10:44.976Z,10.41
2023-03-26T09:12:38.500Z,10.46
2023-03-26T09:14:36.065Z,10.46
2023-03-26T09:16:16.851Z,10.50
2023-03-26T09:18:26.270Z,10.50
2023-03-26T09:20:37.261Z,10.54
2023-03-26T09:22:30.942Z,10.59
2023-03-26T09:24:30.519Z,10.59
2023-03-26T09:26:14.289Z,10.63
2023-03-26T09:28:16.475Z,10.62
2023-03-26T09:30:25.560Z,10.66
2023-03-26T09:32:31.733Z,10.70
2023-03-26T09:34:30.365Z,10.74
2023-03-26T09:36:37.981Z,10.78
2023-03-26T09:38:50.692Z,10.85
2023-03-26T09:40:47.291Z,10.93
2023-03-26T09:42:45.071Z,10.99
2023-03-26T09:44:39.846Z,11.10
2023-03-26T09:46:36.965Z,11.21
2023-03-26T09:48:38.829Z,11.31
2023-03-26T09:50:31.894Z,11.44
2023-03-26T09:52:21.780Z,11.57
2023-03-26T09:54:21.203Z,11.68
2023-03-26T09:56:08.228Z,11.85
2023-03-26T09:57:58.703Z,11.98
2023-03-26T10:00:10.353Z,12.13
2023-03-26T10:02:04.516Z,12.33
2023-03-26T10:03:50.215Z,12.51
2023-03-26T10:05:47.123Z,12.69
2023-03-26T10:08:01.672Z,12.89
2023-03-26T10:09:56.858Z,13.10
2023-03-26T10:12:02.645Z,13.28
2023-03-26T10:13:51.173Z,13.48
2023-03-26T10:15:45.470Z,13.62
2023-03-26T10:17:35.908Z,13.75
2023-03-26T10:19:36.211Z,13.87
2023-03-26T10:21:40.691Z,14.00
2023-03-26T10:23:53.488Z,14.11
2023-03-26T10:26:04.072Z,14.24
2023-03-26T10:27:47.770Z,14.34
2023-03-26T10:29:52.215Z,14.43
2023-03-26T10:31:52.250Z,14.54
2023-03-26T10:33:54.218Z,14.71
2023-03-26T10:35:45.024Z,14.89
2023-03-26T10:37:35.654Z,15.07
2023-03-26T10:39:36.781Z,15.25
2023-03-26T10:41:21.740Z,15.48
2023-03-26T10:43:21.383Z,15.63
2023-03-26T10:45:13.327Z,15.82
2023-03-26T10:47:14.691Z,15.96
2023-03-26T10:49:07.848Z,16.08
2023-03-26T10:51:23.274Z,16.12
2023-03-26T10:53:03.415Z,16.22
2023-03-26T10:54:56.104Z,16.27
2023-03-26T10:56:36.201Z,16.36
2023-03-26T10:58:48.766Z,16.43
2023-03-26T11:00:29.185Z,16.61
2023-03-26T11:02:29.472Z,16.75
2023-03-26T11:04:28.349Z,16.92
2023-03-26T11:06:11.938Z,17.12
2023-03-26T11:07:53.993Z,17.31
2023-03-26T11:09:33.214Z,17.49
2023-03-26T11:11:19.926Z,17.69
2023-03-26T11:13:04.982Z,17.87
2023-03-26T11:14:57.871Z,18.03
2023-03-26T11:16:35.039Z,18.16
2023-03-26T11:18:19.894Z,18.21
2023-03-26T11:19:59.114Z,18.24
2023-03-26T11:21:50.004Z,18.18
2023-03-26T11:23:41.154Z,18.11
2023-03-26T11:25:28.304Z,18.03
2023-03-26T11:27:17.434Z,17.89
2023-03-26T11:29:31.426Z,17.78
2023-03-26T11:31:13.651Z,17.73
2023-03-26T11:32:52.021Z,17.70
2023-03-26T11:34:32.660Z,17.68
2023-03-26T11:36:12.401Z,17.66
2023-03-26T11:37:48.739Z,17.67
2023-03-26T11:39:26.148Z,17.64
2023-03-26T11:41:00.471Z,17.62
2023-03-26T11:43:04.668Z,17.57
2023-03-26T11:44:44.423Z,17.50
2023-03-26T11:46:19.447Z,17.47
2023-03-26T11:47:55.901Z,17.40
2023-03-26T11:49:29.657Z,17.34
2023-03-26T11:51:38.803Z,17.24
2023-03-26T11:53:17.870Z,17.19
2023-03-26T11:54:50.685Z,17.14
2023-03-26T11:57:04.389Z,17.05
2023-03-26T11:58:47.609Z,17.00
2023-03-26T12:00:23.235Z,16.97
2023-03-26T12:02:04.945Z,16.93
2023-03-26T12:03:38.347Z,16.92
2023-03-26T12:05:11.011Z,16.91
2023-03-26T12:06:57.853Z,16.88
2023-03-26T12:08:38.850Z,16.86
2023-03-26T12:10:27.123Z,16.86
2023-03-26T12:12:04.359Z,16.87
2023-03-26T12:13:42.274Z,16.85
2023-03-26T12:15:19.283Z,16.82
2023-03-26T12:17:05.007Z,16.71
2023-03-26T12:18:39.899Z,16.68
2023-03-26T12:20:25.052Z,16.56
2023-03-26T12:21:57.230Z,16.50
2023-03-26T12:23:54.160Z,16.35
2023-03-26T12:25:31.786Z,16.26
2023-03-26T12:27:22.096Z,16.10
2023-03-26T12:28:54.286Z,16.04
2023-03-26T12:30:30.955Z,15.93
2023-03-26T12:32:15.114Z,15.81
2023-03-26T12:34:16.430Z,15.68
2023-03-26T12:35:49.148Z,15.64
2023-03-26T12:37:50.411Z,15.54
2023-03-26T12:40:08.147Z,15.50
2023-03-26T12:44:43.722Z,15.48
2023-03-26T12:44:56.289Z,15.43
2023-03-26T12:45:43.504Z,15.42
2023-03-26T12:47:57.824Z,15.38
2023-03-26T12:49:11.729Z,15.40
2023-03-26T12:51:43.483Z,15.28
2023-03-26T12:53:56.419Z,15.20
2023-03-26T12:56:01.571Z,15.08
2023-03-26T12:57:40.652Z,15.06
2023-03-26T12:59:18.720Z,14.94
2023-03-26T13:01:07.634Z,14.84
2023-03-26T13:02:49.546Z,14.76
2023-03-26T13:05:04.297Z,14.61
2023-03-26T13:07:00.339Z,14.52
2023-03-26T13:08:56.392Z,14.40
2023-03-26T13:10:48.571Z,14.29
2023-03-26T13:12:46.387Z,14.21
2023-03-26T13:14:27.270Z,14.10
2023-03-26T13:16:16.590Z,13.99
2023-03-26T13:18:18.322Z,13.93
2023-03-26T13:20:00.311Z,13.87
2023-03-26T13:21:57.320Z,13.78
2023-03-26T13:23:57.092Z,13.75
2023-03-26T13:25:41.410Z,13.73
2023-03-26T13:27:29.769Z,13.66
2023-03-26T13:29:14.499Z,13.66
2023-03-26T13:31:11.822Z,13.62
2023-03-26T13:33:04.459Z,13.63
2023-03-26T13:34:36.560Z,13.60
2023-03-26T13:36:24.317Z,13.55
2023-03-26T13:38:20.428Z,13.54
2023-03-26T13:40:15.665Z,13.52
2023-03-26T13:42:02.274Z,13.53
2023-03-26T13:43:59.011Z,13.52
2023-03-26T13:45:55.775Z,13.48
2023-03-26T13:47:35.914Z,13.47
2023-03-26T13:49:15.740Z,13.45
2023-03-26T13:51:00.723Z,13.41
2023-03-26T13:52:44.978Z,13.40
2023-03-26T13:54:40.368Z,13.38
2023-03-26T13:56:17.536Z,13.42
2023-03-26T13:58:02.303Z,13.42
2023-03-26T14:00:10.438Z,13.40
2023-03-26T14:02:02.493Z,13.41
2023-03-26T14:03:52.739Z,13.41
2023-03-26T14:05:32.359Z,13.44
2023-03-26T14:07:09.079Z,13.44
2023-03-26T14:08:49.354Z,13.44
2023-03-26T14:10:27.512Z,13.43
2023-03-26T14:12:33.587Z,13.41
2023-03-26T14:14:16.727Z,13.41
2023-03-26T14:15:58.119Z,13.40
2023-03-26T14:17:49.155Z,13.37
2023-03-26T14:19:39.326Z,13.33
2023-03-26T14:21:16.942Z,13.34
2023-03-26T14:23:28.052Z,13.26
2023-03-26T14:25:26.412Z,13.22
2023-03-26T14:27:05.655Z,13.21
2023-03-26T14:29:02.298Z,13.09
2023-03-26T14:31:09.534Z,12.96
2023-03-26T14:33:27.266Z,12.79
2023-03-26T14:35:28.213Z,12.54
2023-03-26T14:37:11.296Z,12.37
2023-03-26T14:39:13.046Z,12.14
2023-03-26T14:41:03.710Z,11.97
2023-03-26T14:42:43.235Z,11.79
2023-03-26T14:44:49.752Z,11.57
2023-03-26T14:46:50.689Z,11.39
2023-03-26T14:48:48.285Z,11.17
2023-03-26T14:50:26.826Z,11.01
2023-03-26T14:52:06.011Z,10.86
2023-03-26T14:53:56.898Z,10.68
2023-03-26T14:56:01.130Z,10.53
2023-03-26T14:57:54.107Z,10.38
2023-03-26T14:59:49.798Z,10.30
2023-03-26T15:01:43.430Z,10.16
2023-03-26T15:03:49.298Z,10.03
2023-03-26T15:05:46.135Z,9.97
2023-03-26T15:07:32.479Z,9.88
2023-03-26T15:09:52.365Z,9.78
2023-03-26T15:12:12.277Z,9.71
2023-03-26T15:14:20.568Z,9.65
2023-03-26T15:16:29.820Z,9.58
2023-03-26T15:18:28.714Z,9.51
2023-03-26T15:20:26.907Z,9.50
2023-03-26T15:22:35.862Z,9.41
2023-03-26T15:24:37.880Z,9.37
2023-03-26T15:26:29.175Z,9.34
2023-03-26T15:28:33.698Z,9.26
2023-03-26T15:30:48.730Z,9.22
2023-03-26T15:32:40.668Z,9.15
2023-03-26T15:35:00.298Z,9.11
2023-03-26T15:36:38.414Z,9.11
2023-03-26T15:38:32.558Z,9.02
2023-03-26T15:40:36.693Z,9.00
2023-03-26T15:42:30.899Z,8.96
2023-03-26T15:44:23.304Z,8.96
2023-03-26T15:46:52.871Z,8.89
2023-03-26T15:48:52.977Z,8.88
2023-03-26T15:50:39.965Z,8.83
2023-03-26T15:52:39.400Z,8.76
2023-03-26T15:54:45.910Z,8.72
2023-03-26T15:56:43.023Z,8.68
2023-03-26T15:58:14.800Z,8.70
2023-03-26T15:59:49.371Z,8.66
2023-03-26T16:01:48.646Z,8.58
2023-03-26T16:03:31.092Z,8.56
2023-03-26T16:05:35.728Z,8.52
2023-03-26T16:07:43.468Z,8.47
2023-03-26T16:09:40.460Z,8.45
2023-03-26T16:11:12.917Z,8.47
2023-03-26T16:13:22.353Z,8.40
2023-03-26T16:15:24.034Z,8.37
2023-03-26T16:16:58.742Z,8.38
2023-03-26T16:18:41.294Z,8.36
2023-03-26T16:20:22.527Z,8.33
2023-03-26T16:22:01.400Z,8.30
2023-03-26T16:23:47.178Z,8.26
2023-03-26T16:26:00.595Z,8.23
2023-03-26T16:27:34.452Z,8.25
2023-03-26T16:29:28.801Z,8.18
2023-03-26T16:31:36.752Z,8.18
2023-03-26T16:33:15.950Z,8.16
2023-03-26T16:34:55.250Z,8.14
2023-03-26T16:36:36.066Z,8.09
2023-03-26T16:38:14.828Z,8.06
2023-03-26T16:39:46.814Z,8.04
2023-03-26T16:41:31.347Z,8.00
2023-03-26T16:43:26.834Z,7.95
2023-03-26T16:45:22.032Z,7.93
2023-03-26T16:47:29.296Z,7.89
2023-03-26T16:49:15.850Z,7.88
2023-03-26T16:51:02.188Z,7.85
2023-03-26T16:53:13.630Z,7.80
2023-03-26T16:54:55.563Z,7.80
2023-03-26T16:56:37.388Z,7.77
2023-03-26T16:58:21.986Z,7.74
2023-03-26T17:00:07.605Z,7.71
2023-03-26T17:01:59.747Z,7.71
2023-03-26T17:03:54.540Z,7.66
2023-03-26T17:05:51.290Z,7.65
2023-03-26T17:07:48.318Z,7.61
2023-03-26T17:09:42.857Z,7.58
2023-03-26T17:11:55.177Z,7.54
2023-03-26T17:13:51.017Z,7.54
2023-03-26T17:15:31.946Z,7.51
2023-03-26T17:17:24.509Z,7.48
2023-03-26T17:19:04.414Z,7.45
2023-03-26T17:20:43.067Z,7.41
2023-03-26T17:22:34.789Z,7.37
2023-03-26T17:24:27.199Z,7.36
2023-03-26T17:26:34.674Z,7.34
2023-03-26T17:28:27.630Z,7.30
2023-03-26T17:30:30.764Z,7.28
2023-03-26T17:32:15.211Z,7.27
2023-03-26T17:33:48.104Z,7.27
2023-03-26T17:35:35.273Z,7.21
2023-03-26T17:37:28.089Z,7.21
2023-03-26T17:39:18.794Z,7.16
2023-03-26T17:40:55.318Z,7.18
2023-03-26T17:42:36.111Z,7.16
2023-03-26T17:44:36.675Z,7.09
2023-03-26T17:46:43.132Z,7.08
2023-03-26T17:48:20.707Z,7.09
2023-03-26T17:50:04.569Z,7.03
2023-03-26T17:52:11.211Z,7.00
2023-03-26T17:53:43.701Z,7.02
2023-03-26T17:55:21.293Z,6.99
2023-03-26T17:56:56.412Z,6.98
2023-03-26T17:58:33.883Z,6.97
2023-03-26T18:00:09.050Z,6.97
2023-03-26T18:01:46.374Z,6.96
2023-03-26T18:03:34.271Z,6.93
2023-03-26T18:05:11.383Z,6.95
2023-03-26T18:07:15.383Z,6.91
2023-03-26T18:08:58.444Z,6.95
2023-03-26T18:11:18.684Z,6.90
2023-03-26T18:12:56.193Z,6.92
2023-03-26T18:15:11.989Z,6.89
2023-03-26T18:16:53.298Z,6.89
2023-03-26T18:18:42.499Z,6.86
2023-03-26T18:20:28.416Z,6.86
2023-03-26T18:22:05.433Z,6.86
2023-03-26T18:23:46.187Z,6.86
2023-03-26T18:25:25.800Z,6.85
2023-03-26T18:27:07.363Z,6.84
2023-03-26T18:28:45.591Z,6.84
2023-03-26T18:30:22.834Z,6.84
2023-03-26T18:32:03.719Z,6.85
2023-03-26T18:33:42.123Z,6.82
2023-03-26T18:35:20.477Z,6.85
2023-03-26T18:37:11.066Z,6.82
2023-03-26T18:38:43.038Z,6.81
2023-03-26T18:40:19.362Z,6.80
2023-03-26T18:41:51.550Z,6.79
2023-03-26T18:43:34.501Z,6.79
2023-03-26T18:45:29.491Z,6.76
2023-03-26T18:47:05.667Z,6.74
2023-03-26T18:48:37.877Z,6.73
2023-03-26T18:50:18.798Z,6.70
2023-03-26T18:51:57.092Z,6.68
2023-03-26T18:53:31.371Z,6.68
2023-03-26T18:55:04.011Z,6.66
2023-03-26T18:56:37.547Z,6.65
2023-03-26T18:58:35.088Z,6.59
2023-03-26T19:00:23.474Z,6.59
2023-03-26T19:01:58.160Z,6.59
2023-03-26T19:03:36.132Z,6.58
2023-03-26T19:05:14.252Z,6.56
2023-03-26T19:06:46.566Z,6.55
2023-03-26T19:08:20.363Z,6.55
2023-03-26T19:09:56.452Z,6.53
2023-03-26T19:11:29.350Z,6.51
2023-03-26T19:13:02.550Z,6.51
2023-03-26T19:14:50.210Z,6.49
2023-03-26T19:16:26.389Z,6.47
2023-03-26T19:18:07.554Z,6.47
2023-03-26T19:19:39.451Z,6.45
2023-03-26T19:21:11.733Z,6.44
2023-03-26T19:22:44.859Z,6.42
2023-03-26T19:24:19.747Z,6.42
2023-03-26T19:25:56.581Z,6.40
2023-03-26T19:27:29.108Z,6.40
2023-03-26T19:29:01.436Z,6.41
2023-03-26T19:30:36.236Z,6.41
2023-03-26T19:32:21.604Z,6.40
2023-03-26T19:34:11.660Z,6.38
2023-03-26T19:35:45.583Z,6.42
2023-03-26T19:37:25.427Z,6.42
2023-03-26T19:39:00.210Z,6.40
2023-03-26T19:40:34.457Z,6.40
2023-03-26T19:42:11.570Z,6.41
2023-03-26T19:43:48.721Z,6.40
2023-03-26T19:45:23.222Z,6.41
2023-03-26T19:47:31.931Z,6.40
2023-03-26T19:49:32.242Z,6.39
2023-03-26T19:51:06.351Z,6.42
2023-03-26T19:52:41.481Z,6.42
2023-03-26T19:54:16.188Z,6.43
2023-03-26T19:55:56.632Z,6.41
2023-03-26T19:57:30.256Z,6.44
2023-03-26T19:59:02.468Z,6.44
2023-03-26T20:00:34.620Z,6.44
2023-03-26T20:02:11.705Z,6.44
2023-03-26T20:03:47.024Z,6.45
2023-03-26T20:05:23.204Z,6.46
2023-03-26T20:06:56.340Z,6.45
2023-03-26T20:08:28.468Z,6.47
2023-03-26T20:10:01.133Z,6.47
2023-03-26T20:11:38.125Z,6.49
2023-03-26T20:13:17.414Z,6.48
2023-03-26T20:14:49.273Z,6.49
2023-03-26T20:16:25.356Z,6.49
2023-03-26T20:17:57.156Z,6.50
2023-03-26T20:19:29.881Z,6.49
2023-03-26T20:21:01.747Z,6.50
2023-03-26T20:22:33.525Z,6.50
2023-03-26T20:24:11.741Z,6.49
2023-03-26T20:25:50.004Z,6.48
2023-03-26T20:27:22.535Z,6.49
2023-03-26T20:28:54.307Z,6.49
2023-03-26T20:30:37.351Z,6.49
2023-03-26T20:32:18.778Z,6.48
2023-03-26T20:33:52.099Z,6.47
2023-03-26T20:35:36.150Z,6.49
2023-03-26T20:37:08.294Z,6.47
2023-03-26T20:38:41.678Z,6.46
2023-03-26T20:40:14.460Z,6.46
2023-03-26T20:41:48.636Z,6.45
2023-03-26T20:43:21.914Z,6.46
2023-03-26T20:44:53.664Z,6.45
2023-03-26T20:46:31.120Z,6.44
2023-03-26T20:48:03.714Z,6.45
2023-03-26T20:49:35.556Z,6.46
2023-03-26T20:51:10.115Z,6.45
2023-03-26T20:52:44.152Z,6.44
2023-03-26T20:54:23.433Z,6.43
2023-03-26T20:55:55.408Z,6.44
2023-03-26T20:57:27.481Z,6.43
2023-03-26T21:00:34.900Z,6.42
2023-03-26T21:02:06.844Z,6.41
2023-03-26T21:03:41.764Z,6.42
2023-03-26T21:05:19.171Z,6.42
2023-03-26T21:06:51.789Z,6.42
2023-03-26T21:08:30.313Z,6.40
2023-03-26T21:10:03.263Z,6.39
2023-03-26T21:11:50.180Z,6.37
2023-03-26T21:13:35.240Z,6.37
2023-03-26T21:15:20.607Z,6.36
2023-03-26T21:16:55.541Z,6.36
2023-03-26T21:18:27.788Z,6.36
2023-03-26T21:20:08.540Z,6.34
2023-03-26T21:21:52.739Z,6.34
2023-03-26T21:23:39.289Z,6.33
2023-03-26T21:25:39.135Z,6.31
2023-03-26T21:27:48.045Z,6.29
2023-03-26T21:29:20.288Z,6.31
2023-03-26T21:30:52.605Z,6.30
2023-03-26T21:32:25.365Z,6.30
2023-03-26T21:33:58.201Z,6.29
2023-03-26T21:35:30.400Z,6.28
2023-03-26T21:37:02.939Z,6.29
2023-03-26T21:38:35.641Z,6.29
2023-03-26T21:40:17.076Z,6.29
2023-03-26T21:42:05.478Z,6.29
2023-03-26T21:43:37.663Z,6.29
2023-03-26T21:45:10.906Z,6.30
2023-03-26T21:46:44.922Z,6.28
2023-03-26T21:48:17.237Z,6.29
2023-03-26T21:49:49.298Z,6.28
2023-03-26T21:51:21.380Z,6.28
2023-03-26T21:52:53.504Z,6.27
2023-03-26T21:54:29.079Z,6.27
2023-03-26T21:56:10.660Z,6.27
2023-03-26T21:57:42.619Z,6.26
2023-03-26T21:59:39.339Z,6.22
2023-03-26T22:01:26.666Z,6.25
2023-03-26T22:03:12.797Z,6.24
2023-03-26T22:04:54.228Z,6.27
2023-03-26T22:06:32.218Z,6.21
2023-03-26T22:08:06.371Z,6.28
2023-03-26T22:09:38.607Z,6.27
2023-03-26T22:11:12.409Z,6.26
2023-03-26T22:12:44.360Z,6.23
2023-03-26T22:14:16.145Z,6.23
2023-03-26T22:15:48.025Z,6.23
2023-03-26T22:17:19.873Z,6.23
2023-03-26T22:18:53.359Z,6.23
2023-03-26T22:20:25.443Z,6.23
2023-03-26T22:21:58.611Z,6.22
2023-03-26T22:23:36.738Z,6.22
2023-03-26T22:25:10.506Z,6.23
2023-03-26T22:26:42.362Z,6.23
2023-03-26T22:28:14.714Z,6.23
2023-03-26T22:29:46.709Z,6.25
2023-03-26T22:31:18.970Z,6.25
2023-03-26T22:32:51.854Z,6.24
2023-03-26T22:34:23.877Z,6.25
2023-03-26T22:35:56.091Z,6.25
2023-03-26T22:37:28.845Z,6.25
2023-03-26T22:39:01.137Z,6.25
2023-03-26T22:40:33.020Z,6.25
2023-03-26T22:42:05.197Z,6.25
2023-03-26T22:43:39.735Z,6.25
2023-03-26T22:45:12.604Z,6.24
2023-03-26T22:46:46.232Z,6.25
2023-03-26T22:48:18.484Z,6.25
2023-03-26T22:49:50.289Z,6.23
2023-03-26T22:51:22.051Z,6.22
2023-03-26T22:52:53.813Z,6.22
2023-03-26T22:54:26.488Z,6.20
2023-03-26T22:55:59.252Z,6.20
2023-03-26T22:57:31.182Z,6.18